Time;durP1;ratioP1;P1;durP2;ratioP2;P2;SDS_P1;SDS_P2;PMS_P1;PMS_P2;Temp;Humidity;BMP_temperature;BMP_pressure;BME280_temperature;BME280_humidity;BME280_pressure;Samples;Min_cycle;Max_cycle;Signal;HPM_P1;HPM_P2
2021/12/23 00:00:54;;;;;;;37.03;16.23;;;0.20;91.20;;;;;;4978274;28;20070;-76
2021/12/23 00:03:20;;;;;;;42.40;17.33;;;0.30;91.20;;;;;;4994280;28;20148;-75
2021/12/23 00:05:46;;;;;;;40.73;15.97;;;0.30;91.20;;;;;;4982313;28;20502;-76
2021/12/23 00:08:12;;;;;;;37.50;17.60;;;0.30;91.20;;;;;;4997904;28;20077;-75
2021/12/23 00:10:37;;;;;;;44.17;16.50;;;0.30;91.20;;;;;;4994932;28;20104;-76
2021/12/23 00:13:03;;;;;;;36.40;15.87;;;0.30;91.20;;;;;;4993440;28;20093;-76
2021/12/23 00:15:39;;;;;;;43.27;15.77;;;0.30;91.10;;;;;;4991288;28;20099;-75
2021/12/23 00:23:24;;;;;;;38.43;16.37;;;0.30;91.10;;;;;;4993690;28;20085;-76
2021/12/23 00:25:52;;;;;;;37.10;15.48;;;0.30;91.10;;;;;;5005304;28;20152;-75
2021/12/23 00:28:19;;;;;;;39.57;16.93;;;0.30;91.10;;;;;;4994714;28;20084;-75
2021/12/23 00:30:45;;;;;;;42.53;16.57;;;0.30;91.10;;;;;;4999433;28;20078;-75
2021/12/23 00:33:10;;;;;;;41.07;16.67;;;0.40;91.10;;;;;;4996570;28;20130;-75
2021/12/23 00:35:36;;;;;;;44.33;17.37;;;0.40;91.10;;;;;;5021257;28;20174;-75
2021/12/23 00:38:10;;;;;;;41.37;17.37;;;0.40;91.40;;;;;;5000853;28;20151;-75
2021/12/23 00:40:36;;;;;;;42.60;17.30;;;0.40;91.00;;;;;;4976835;28;20076;-75
2021/12/23 00:43:01;;;;;;;43.77;16.57;;;0.40;91.00;;;;;;5007890;28;20083;-75
2021/12/23 00:45:27;;;;;;;45.40;16.17;;;0.40;91.00;;;;;;4979953;28;20141;-76
2021/12/23 00:47:53;;;;;;;42.37;16.83;;;0.40;91.00;;;;;;5015731;28;20080;-75
2021/12/23 00:50:18;;;;;;;40.80;16.33;;;0.40;91.00;;;;;;4994778;28;20151;-75
2021/12/23 00:52:45;;;;;;;43.90;17.27;;;0.50;91.00;;;;;;5003293;28;20086;-75
2021/12/23 00:55:12;;;;;;;35.87;15.83;;;0.40;91.00;;;;;;5010507;28;20608;-75
2021/12/23 00:57:40;;;;;;;45.17;18.17;;;0.50;90.90;;;;;;4994527;28;20124;-75
2021/12/23 01:00:12;;;;;;;46.57;18.03;;;0.50;90.90;;;;;;4985669;28;20448;-75
2021/12/23 01:02:43;;;;;;;39.80;17.08;;;0.50;90.90;;;;;;4995913;28;20069;-76
2021/12/23 01:05:09;;;;;;;43.25;17.77;;;0.50;90.90;;;;;;4998786;28;20067;-76
2021/12/23 01:07:35;;;;;;;41.33;17.17;;;0.50;90.90;;;;;;4994686;28;20164;-76
2021/12/23 01:10:00;;;;;;;39.53;17.73;;;0.50;90.90;;;;;;4992432;28;20247;-75
2021/12/23 01:12:33;;;;;;;39.87;17.43;;;0.50;90.90;;;;;;4987817;28;20091;-75
2021/12/23 01:15:12;;;;;;;41.07;17.10;;;0.50;90.90;;;;;;4961104;28;20082;-75
2021/12/23 01:18:00;;;;;;;40.43;16.63;;;0.50;90.90;;;;;;4994421;28;20546;-75
2021/12/23 01:20:31;;;;;;;43.10;17.13;;;0.50;90.90;;;;;;4993538;28;20600;-75
2021/12/23 01:23:00;;;;;;;45.35;17.42;;;0.50;90.90;;;;;;4994183;28;20208;-75
2021/12/23 01:25:27;;;;;;;48.43;17.67;;;0.50;91.20;;;;;;4996445;28;20084;-75
2021/12/23 01:27:53;;;;;;;43.07;17.63;;;0.50;90.80;;;;;;4998503;28;20084;-75
2021/12/23 01:30:20;;;;;;;41.10;17.33;;;0.50;90.80;;;;;;5004951;28;20163;-76
2021/12/23 01:32:48;;;;;;;43.23;18.10;;;0.50;90.80;;;;;;5010585;28;20080;-75
2021/12/23 01:35:14;;;;;;;41.97;17.03;;;0.50;90.80;;;;;;4998533;28;20172;-75
2021/12/23 01:37:40;;;;;;;41.33;17.80;;;0.50;90.80;;;;;;5007233;28;20152;-75
2021/12/23 01:40:08;;;;;;;42.37;16.20;;;0.50;90.80;;;;;;4992542;28;20088;-75
2021/12/23 01:42:34;;;;;;;39.60;17.07;;;0.50;90.80;;;;;;4997134;28;20066;-75
2021/12/23 01:44:59;;;;;;;41.57;18.03;;;0.50;90.80;;;;;;4996450;28;20086;-75
2021/12/23 01:47:25;;;;;;;44.27;17.30;;;0.50;90.80;;;;;;5012323;28;20080;-75
2021/12/23 01:49:51;;;;;;;43.97;17.47;;;0.50;90.80;;;;;;4982298;28;20112;-75
2021/12/23 01:52:17;;;;;;;46.70;17.60;;;0.50;90.80;;;;;;4998987;28;20535;-75
2021/12/23 01:54:43;;;;;;;41.90;16.47;;;0.50;90.80;;;;;;4994000;28;20444;-75
2021/12/23 01:57:12;;;;;;;43.63;17.17;;;0.50;90.70;;;;;;4993795;28;20532;-75
2021/12/23 01:59:38;;;;;;;49.40;17.13;;;0.50;90.70;;;;;;5006911;28;20090;-75
2021/12/23 02:02:04;;;;;;;46.47;18.23;;;0.60;90.80;;;;;;4997501;28;20131;-75
2021/12/23 02:04:29;;;;;;;48.77;17.50;;;0.50;91.10;;;;;;4992929;28;20112;-75
2021/12/23 02:06:55;;;;;;;41.47;17.20;;;0.50;90.70;;;;;;4976046;28;20139;-75
2021/12/23 02:09:21;;;;;;;39.20;17.77;;;0.50;90.70;;;;;;5002215;28;20082;-76
2021/12/23 02:11:46;;;;;;;45.23;17.53;;;0.50;90.70;;;;;;4993702;28;20088;-76
2021/12/23 02:14:13;;;;;;;44.37;17.97;;;0.60;90.70;;;;;;5008334;28;20605;-75
2021/12/23 02:16:38;;;;;;;44.73;16.83;;;0.50;90.70;;;;;;4993371;28;20078;-75
2021/12/23 02:19:13;;;;;;;49.77;18.97;;;0.60;90.70;;;;;;4995143;28;20101;-75
2021/12/23 02:21:42;;;;;;;44.93;18.43;;;0.60;90.70;;;;;;5004311;28;20075;-75
2021/12/23 02:24:08;;;;;;;47.07;18.00;;;0.60;90.70;;;;;;4994238;28;20143;-75
2021/12/23 02:26:40;;;;;;;41.80;17.57;;;0.60;90.70;;;;;;5008499;28;20524;-75
2021/12/23 02:29:06;;;;;;;47.37;18.50;;;0.60;90.70;;;;;;4996116;28;20084;-75
2021/12/23 02:31:32;;;;;;;41.97;17.83;;;0.60;90.70;;;;;;4984445;28;20654;-75
2021/12/23 02:33:59;;;;;;;43.17;16.83;;;0.60;90.70;;;;;;4992129;28;20068;-75
2021/12/23 02:36:26;;;;;;;40.50;16.63;;;0.60;90.60;;;;;;4998552;28;20083;-75
2021/12/23 02:38:52;;;;;;;38.37;17.47;;;0.60;90.60;;;;;;4993869;28;20560;-75
2021/12/23 02:41:18;;;;;;;43.60;17.10;;;0.60;90.60;;;;;;4978028;28;20092;-75
2021/12/23 02:43:44;;;;;;;39.87;17.80;;;0.60;90.60;;;;;;5000287;28;20076;-75
2021/12/23 02:46:10;;;;;;;43.53;16.70;;;0.60;90.50;;;;;;4979993;28;20093;-75
2021/12/23 02:48:37;;;;;;;47.97;18.33;;;0.70;90.60;;;;;;4990304;28;20591;-75
2021/12/23 02:51:07;;;;;;;45.07;18.23;;;0.60;90.50;;;;;;4996234;28;20211;-75
2021/12/23 02:53:33;;;;;;;39.33;17.73;;;0.60;90.50;;;;;;4981852;28;20555;-75
2021/12/23 02:56:01;;;;;;;44.73;17.77;;;0.60;90.50;;;;;;4992186;28;20156;-75
2021/12/23 02:58:27;;;;;;;45.50;17.33;;;0.60;90.50;;;;;;4993191;28;20088;-75
2021/12/23 03:00:55;;;;;;;41.47;16.33;;;0.60;90.50;;;;;;5005032;28;20553;-75
2021/12/23 03:03:21;;;;;;;43.10;18.00;;;0.70;90.50;;;;;;4982025;28;21148;-75
2021/12/23 03:05:51;;;;;;;41.27;17.63;;;0.60;90.50;;;;;;4996828;28;20089;-75
2021/12/23 03:08:34;;;;;;;40.40;18.17;;;0.60;90.40;;;;;;4977946;28;20092;-75
2021/12/23 03:11:00;;;;;;;48.67;18.03;;;0.60;90.40;;;;;;4991370;28;20200;-76
2021/12/23 03:13:26;;;;;;;43.30;17.47;;;0.60;90.40;;;;;;4996474;28;20594;-75
2021/12/23 03:15:52;;;;;;;44.87;17.57;;;0.60;90.40;;;;;;4991722;28;20085;-75
2021/12/23 03:18:18;;;;;;;50.10;17.40;;;0.60;90.40;;;;;;5002403;28;20092;-75
2021/12/23 03:20:45;;;;;;;46.77;17.83;;;0.60;90.40;;;;;;4991667;28;20108;-75
2021/12/23 03:23:10;;;;;;;48.63;17.90;;;0.60;90.40;;;;;;4997059;28;20088;-75
2021/12/23 03:25:36;;;;;;;47.10;18.57;;;0.60;90.40;;;;;;4995232;28;20082;-75
2021/12/23 03:28:02;;;;;;;47.50;19.53;;;0.60;90.50;;;;;;4999837;28;20073;-75
2021/12/23 03:30:28;;;;;;;42.30;17.87;;;0.60;90.40;;;;;;4992501;28;20111;-75
2021/12/23 03:32:54;;;;;;;45.50;17.63;;;0.60;90.40;;;;;;4991155;28;20533;-75
2021/12/23 03:35:19;;;;;;;46.97;17.63;;;0.60;90.40;;;;;;4987912;28;20087;-75
2021/12/23 03:37:45;;;;;;;42.33;17.43;;;0.60;90.40;;;;;;4992549;28;20436;-75
2021/12/23 03:40:11;;;;;;;44.10;17.60;;;0.60;90.40;;;;;;4982105;28;20083;-75
2021/12/23 03:42:39;;;;;;;45.47;17.43;;;0.60;90.40;;;;;;4992891;28;20077;-75
2021/12/23 03:45:07;;;;;;;47.57;18.20;;;0.60;90.40;;;;;;4991974;28;20544;-75
2021/12/23 03:47:34;;;;;;;43.97;16.63;;;0.60;90.40;;;;;;4964164;28;20675;-75
2021/12/23 03:50:00;;;;;;;49.23;18.80;;;0.60;90.40;;;;;;4997804;28;20200;-75
2021/12/23 03:52:26;;;;;;;46.47;18.77;;;0.60;90.40;;;;;;4987722;28;20544;-75
2021/12/23 03:54:52;;;;;;;40.57;17.47;;;0.60;90.40;;;;;;5008164;28;20082;-75
2021/12/23 03:57:17;;;;;;;49.23;19.13;;;0.60;90.40;;;;;;4991977;28;20088;-75
2021/12/23 03:59:43;;;;;;;39.67;16.40;;;0.60;90.40;;;;;;4993123;28;20097;-75
2021/12/23 04:02:09;;;;;;;47.97;17.10;;;0.60;90.40;;;;;;4992293;28;20085;-75
2021/12/23 04:04:35;;;;;;;49.90;19.40;;;0.60;90.40;;;;;;4992528;28;20064;-75
2021/12/23 04:07:02;;;;;;;46.77;18.13;;;0.60;90.40;;;;;;4991661;28;20152;-75
2021/12/23 04:09:27;;;;;;;49.63;18.60;;;0.70;90.50;;;;;;5001067;28;20088;-75
2021/12/23 04:11:53;;;;;;;48.93;20.83;;;0.70;90.40;;;;;;4995495;28;20088;-75
2021/12/23 04:14:18;;;;;;;43.67;17.40;;;0.70;90.50;;;;;;4975584;28;20080;-76
2021/12/23 04:16:44;;;;;;;47.93;18.97;;;0.70;90.50;;;;;;4962697;28;20089;-75
2021/12/23 04:19:11;;;;;;;51.27;19.47;;;0.70;90.50;;;;;;5002100;28;20097;-75
2021/12/23 04:21:38;;;;;;;46.33;19.87;;;0.70;90.40;;;;;;4994693;28;20079;-75
2021/12/23 04:24:04;;;;;;;53.33;18.50;;;0.80;90.40;;;;;;4990156;28;20156;-75
2021/12/23 04:26:30;;;;;;;48.60;18.73;;;0.80;90.40;;;;;;4992281;28;20080;-75
2021/12/23 04:28:55;;;;;;;49.10;20.57;;;0.80;90.40;;;;;;4990538;28;20085;-75
2021/12/23 04:31:23;;;;;;;48.17;20.47;;;0.80;90.40;;;;;;4963075;28;20078;-75
2021/12/23 04:33:50;;;;;;;52.77;20.33;;;0.80;90.40;;;;;;4982938;28;20076;-75
2021/12/23 04:36:17;;;;;;;50.70;20.60;;;0.80;90.80;;;;;;4977813;28;20084;-75
2021/12/23 04:38:44;;;;;;;51.37;19.47;;;0.80;90.40;;;;;;4994902;28;20089;-75
2021/12/23 04:41:10;;;;;;;49.60;20.20;;;0.80;90.30;;;;;;4960860;28;20079;-76
2021/12/23 04:43:37;;;;;;;42.93;18.57;;;0.80;90.40;;;;;;4987222;28;20274;-75
2021/12/23 04:46:03;;;;;;;52.73;20.57;;;0.90;90.40;;;;;;4991167;28;20080;-76
2021/12/23 04:48:29;;;;;;;51.27;20.33;;;0.90;90.80;;;;;;5007552;28;20081;-76
2021/12/23 04:50:55;;;;;;;49.50;20.37;;;0.90;90.40;;;;;;4990582;28;20620;-76
2021/12/23 04:53:21;;;;;;;55.30;20.80;;;0.90;90.40;;;;;;5001344;28;20080;-76
2021/12/23 04:55:47;;;;;;;50.80;20.43;;;0.90;90.40;;;;;;5007557;28;20608;-76
2021/12/23 04:58:13;;;;;;;55.90;20.90;;;0.90;90.40;;;;;;4975099;28;20106;-76
2021/12/23 05:00:39;;;;;;;53.03;19.93;;;0.90;90.40;;;;;;4992545;28;20426;-76
2021/12/23 05:03:04;;;;;;;52.37;20.67;;;0.90;90.40;;;;;;4990454;28;20085;-76
2021/12/23 05:05:30;;;;;;;50.17;19.10;;;0.90;90.40;;;;;;4991250;28;20515;-76
2021/12/23 05:07:57;;;;;;;48.90;18.87;;;0.90;90.40;;;;;;4990104;28;20081;-76
2021/12/23 05:10:25;;;;;;;49.47;20.37;;;0.90;90.30;;;;;;4994630;28;20092;-77
2021/12/23 05:12:50;;;;;;;48.57;20.53;;;0.90;90.30;;;;;;5008908;28;20080;-80
2021/12/23 05:15:18;;;;;;;51.37;19.87;;;0.90;90.30;;;;;;4996352;28;20085;-79
2021/12/23 05:17:45;;;;;;;53.80;20.23;;;0.90;90.40;;;;;;4992268;28;20065;-77
2021/12/23 05:20:12;;;;;;;51.10;20.43;;;0.90;90.40;;;;;;4986063;28;20434;-78
2021/12/23 05:22:39;;;;;;;46.83;19.87;;;0.90;90.40;;;;;;4985267;28;20077;-77
2021/12/23 05:25:06;;;;;;;57.17;21.10;;;0.90;90.30;;;;;;4991870;28;20160;-81
2021/12/23 05:27:32;;;;;;;54.67;18.80;;;0.90;90.40;;;;;;4996234;28;20077;-79
2021/12/23 05:29:57;;;;;;;48.97;19.45;;;1.00;90.40;;;;;;4977939;28;20087;-78
2021/12/23 05:32:23;;;;;;;52.30;20.30;;;0.90;90.30;;;;;;4962181;28;20541;-77
2021/12/23 05:34:49;;;;;;;51.57;20.17;;;0.90;90.40;;;;;;4994005;28;20435;-77
2021/12/23 05:37:15;;;;;;;55.83;19.77;;;0.90;90.40;;;;;;4989364;28;20088;-78
2021/12/23 05:39:41;;;;;;;55.40;22.03;;;0.90;90.40;;;;;;4989876;28;20096;-80
2021/12/23 05:42:07;;;;;;;55.80;21.67;;;0.90;90.30;;;;;;4993812;28;20072;-80
2021/12/23 05:44:32;;;;;;;56.47;22.13;;;0.90;90.40;;;;;;4993014;28;20159;-80
2021/12/23 05:46:58;;;;;;;56.00;20.93;;;1.00;90.40;;;;;;4991353;28;20185;-80
2021/12/23 05:49:24;;;;;;;54.50;22.07;;;0.90;90.40;;;;;;4976054;28;20085;-80
2021/12/23 05:51:49;;;;;;;54.93;21.53;;;1.00;90.40;;;;;;4962023;28;20129;-81
2021/12/23 05:54:15;;;;;;;51.90;21.07;;;1.00;90.40;;;;;;4974630;28;20084;-78
2021/12/23 05:56:41;;;;;;;51.60;19.00;;;1.00;90.40;;;;;;4981670;28;20081;-78
2021/12/23 05:59:06;;;;;;;53.60;20.73;;;1.00;90.30;;;;;;4975209;28;20094;-78
2021/12/23 06:01:32;;;;;;;59.30;21.43;;;1.00;90.40;;;;;;5008321;28;20172;-79
2021/12/23 06:03:58;;;;;;;53.93;19.83;;;1.00;90.30;;;;;;4991928;28;20136;-78
2021/12/23 06:06:23;;;;;;;58.77;21.50;;;1.00;90.30;;;;;;5004682;28;20081;-78
2021/12/23 06:08:49;;;;;;;65.77;22.27;;;1.00;90.30;;;;;;4991189;28;20092;-78
2021/12/23 06:11:15;;;;;;;56.03;22.10;;;1.00;90.30;;;;;;4998144;28;20077;-78
2021/12/23 06:13:41;;;;;;;60.70;21.17;;;1.00;90.30;;;;;;4981843;28;20163;-78
2021/12/23 06:16:06;;;;;;;62.20;21.60;;;1.00;90.40;;;;;;4979564;28;20080;-78
2021/12/23 06:18:32;;;;;;;59.13;22.80;;;1.00;90.30;;;;;;4969940;28;20085;-78
2021/12/23 06:20:57;;;;;;;56.40;21.70;;;1.00;90.30;;;;;;4961421;28;20086;-78
2021/12/23 06:23:23;;;;;;;53.13;21.07;;;1.00;90.30;;;;;;4977538;28;20077;-78
2021/12/23 06:25:49;;;;;;;58.40;21.63;;;1.00;90.30;;;;;;4977860;28;20528;-78
2021/12/23 06:28:15;;;;;;;51.53;20.00;;;1.00;90.30;;;;;;4968178;28;20081;-78
2021/12/23 06:30:40;;;;;;;55.70;21.03;;;1.10;90.70;;;;;;4959990;28;20111;-77
2021/12/23 06:33:07;;;;;;;53.22;20.92;;;1.00;90.30;;;;;;5006653;28;20085;-78
2021/12/23 06:35:32;;;;;;;54.70;22.17;;;1.00;90.20;;;;;;4995516;28;20133;-78
2021/12/23 06:38:04;;;;;;;57.27;21.80;;;1.00;90.20;;;;;;4981404;28;20088;-78
2021/12/23 06:40:30;;;;;;;;;;;1.00;90.20;;;;;;4998318;28;20123;-78
2021/12/23 06:42:55;;;;;;;49.70;20.40;;;1.10;90.20;;;;;;5006965;28;19976;-78
2021/12/23 06:45:21;;;;;;;58.23;22.00;;;1.00;90.20;;;;;;4978136;28;20120;-77
2021/12/23 06:47:47;;;;;;;55.63;21.70;;;1.00;90.60;;;;;;4974697;28;20084;-80
2021/12/23 06:50:15;;;;;;;58.63;21.97;;;1.00;90.20;;;;;;4988429;28;20119;-81
2021/12/23 06:52:41;;;;;;;59.23;22.43;;;1.00;90.20;;;;;;4963861;28;20108;-81
2021/12/23 06:55:10;;;;;;;61.27;21.37;;;1.10;90.40;;;;;;4989952;28;20120;-80
2021/12/23 06:57:36;;;;;;;55.30;21.40;;;1.00;90.20;;;;;;5002851;28;20122;-80
2021/12/23 07:00:05;;;;;;;54.10;22.27;;;1.10;90.20;;;;;;4996053;28;20179;-80
2021/12/23 07:02:31;;;;;;;55.90;21.73;;;1.10;90.20;;;;;;4992903;28;20446;-80
2021/12/23 07:04:57;;;;;;;56.33;22.37;;;1.10;90.20;;;;;;4960169;28;20127;-81
2021/12/23 07:07:28;;;;;;;54.83;21.70;;;1.10;90.20;;;;;;4979458;28;20870;-81
2021/12/23 07:09:54;;;;;;;56.25;22.08;;;1.20;90.20;;;;;;4979922;28;20559;-81
2021/12/23 07:12:21;;;;;;;61.33;22.63;;;1.10;90.20;;;;;;4985570;28;20191;-81
2021/12/23 07:14:46;;;;;;;56.90;21.73;;;1.20;90.60;;;;;;4996709;28;20077;-80
2021/12/23 07:17:12;;;;;;;56.67;22.80;;;1.10;90.10;;;;;;4957526;28;20087;-80
2021/12/23 07:19:38;;;;;;;58.13;21.00;;;1.10;90.10;;;;;;5002669;28;20436;-81
2021/12/23 07:22:04;;;;;;;60.10;22.00;;;1.10;90.10;;;;;;4964389;28;20076;-80
2021/12/23 07:24:29;;;;;;;53.37;21.17;;;1.10;90.10;;;;;;4990147;28;20079;-80
2021/12/23 07:26:55;;;;;;;65.20;23.23;;;1.10;90.10;;;;;;4994753;28;20083;-81
2021/12/23 07:29:21;;;;;;;56.53;22.13;;;1.10;90.10;;;;;;4974873;28;20100;-80
2021/12/23 07:31:47;;;;;;;57.90;20.88;;;1.10;90.50;;;;;;4996971;28;20074;-81
2021/12/23 07:34:13;;;;;;;60.77;23.60;;;1.10;90.10;;;;;;4997766;28;20084;-80
2021/12/23 07:36:41;;;;;;;54.78;21.27;;;1.20;90.10;;;;;;4992647;28;20077;-86
2021/12/23 07:39:09;;;;;;;58.38;23.08;;;1.20;90.10;;;;;;4991685;28;20101;-84
2021/12/23 07:41:34;;;;;;;63.10;22.50;;;1.20;90.10;;;;;;5002437;28;20064;-83
2021/12/23 07:44:05;;;;;;;58.38;23.10;;;1.20;90.10;;;;;;4990835;28;20088;-81
2021/12/23 07:46:36;;;;;;;56.88;22.38;;;1.20;90.10;;;;;;4970717;28;20073;-79
2021/12/23 07:49:03;;;;;;;64.40;23.27;;;1.20;90.10;;;;;;4980072;28;20108;-79
2021/12/23 07:51:29;;;;;;;63.33;23.27;;;1.20;90.10;;;;;;5006663;28;20108;-80
2021/12/23 07:53:55;;;;;;;68.43;25.77;;;1.20;90.10;;;;;;4965086;28;20136;-79
2021/12/23 07:56:22;;;;;;;60.75;23.65;;;1.20;90.10;;;;;;4992174;28;20084;-79
2021/12/23 07:58:48;;;;;;;60.47;23.63;;;1.20;90.10;;;;;;4994133;28;20085;-79
2021/12/23 08:01:14;;;;;;;68.20;24.20;;;1.30;90.20;;;;;;4992417;28;20081;-79
2021/12/23 08:03:40;;;;;;;72.43;26.47;;;1.20;90.20;;;;;;4979450;28;20088;-79
2021/12/23 08:06:06;;;;;;;71.28;26.38;;;1.20;90.20;;;;;;4984151;28;21053;-79
2021/12/23 08:08:31;;;;;;;76.17;27.37;;;1.30;90.30;;;;;;4995122;28;20161;-79
2021/12/23 08:10:57;;;;;;;73.27;27.70;;;1.30;90.30;;;;;;4983189;28;20093;-80
2021/12/23 08:13:23;;;;;;;75.47;26.23;;;1.30;90.30;;;;;;4994445;28;20450;-79
2021/12/23 08:15:49;;;;;;;73.32;27.08;;;1.30;90.30;;;;;;4995957;28;20078;-79
2021/12/23 08:18:15;;;;;;;74.90;26.23;;;1.30;90.40;;;;;;4994583;28;20104;-80
2021/12/23 08:20:41;;;;;;;79.77;29.20;;;1.30;90.40;;;;;;4985187;28;20068;-80
2021/12/23 08:23:06;;;;;;;79.93;27.87;;;1.30;90.40;;;;;;4978452;28;20439;-80
2021/12/23 08:25:32;;;;;;;78.90;27.33;;;1.30;90.40;;;;;;4981495;28;20077;-80
2021/12/23 08:27:58;;;;;;;78.33;27.03;;;1.30;90.40;;;;;;4997425;28;20123;-80
2021/12/23 08:30:24;;;;;;;84.35;27.60;;;1.30;90.40;;;;;;4973305;28;20073;-80
2021/12/23 08:32:50;;;;;;;80.63;30.60;;;1.30;90.40;;;;;;4993379;28;20491;-80
2021/12/23 08:35:18;;;;;;;89.77;30.43;;;1.30;90.40;;;;;;5015068;28;20532;-80
2021/12/23 08:37:46;;;;;;;85.50;29.23;;;1.30;90.50;;;;;;4998500;28;20198;-80
2021/12/23 08:40:23;;;;;;;94.18;31.55;;;1.30;90.50;;;;;;5000094;28;20127;-80
2021/12/23 08:42:49;;;;;;;87.53;31.43;;;1.30;90.50;;;;;;4983520;28;20072;-80
2021/12/23 08:45:16;;;;;;;95.23;31.97;;;1.30;90.50;;;;;;4998753;28;20084;-80
2021/12/23 08:47:42;;;;;;;96.53;32.83;;;1.30;90.50;;;;;;4999464;28;20095;-80
2021/12/23 08:50:09;;;;;;;101.67;34.80;;;1.30;90.60;;;;;;4994020;28;20536;-80
2021/12/23 08:52:35;;;;;;;103.73;33.70;;;1.30;90.60;;;;;;4990921;28;20120;-80
2021/12/23 08:55:05;;;;;;;96.50;33.40;;;1.30;90.60;;;;;;4960188;28;20078;-81
2021/12/23 08:57:30;;;;;;;96.53;31.93;;;1.30;90.60;;;;;;4992495;28;20207;-80
2021/12/23 08:59:56;;;;;;;108.18;34.05;;;1.30;90.70;;;;;;4993820;28;20175;-81
2021/12/23 09:02:22;;;;;;;96.17;33.17;;;1.30;91.00;;;;;;4994348;28;20069;-81
2021/12/23 09:04:48;;;;;;;105.70;35.63;;;1.30;90.70;;;;;;4995209;28;20064;-82
2021/12/23 09:07:14;;;;;;;110.47;34.00;;;1.30;90.80;;;;;;4964946;28;20076;-82
2021/12/23 09:09:39;;;;;;;104.18;33.35;;;1.30;91.20;;;;;;4964413;28;20154;-82
2021/12/23 09:12:07;;;;;;;96.82;34.78;;;1.40;90.90;;;;;;4983249;28;20076;-82
2021/12/23 09:14:34;;;;;;;109.35;34.60;;;1.40;90.90;;;;;;4992247;28;20078;-81
2021/12/23 09:17:00;;;;;;;116.43;37.97;;;1.40;91.30;;;;;;4974261;28;20084;-82
2021/12/23 09:19:26;;;;;;;111.47;34.10;;;1.40;90.90;;;;;;4993465;28;20149;-82
2021/12/23 09:21:52;;;;;;;111.93;36.20;;;1.40;91.00;;;;;;4979221;28;20083;-82
2021/12/23 09:24:20;;;;;;;121.32;37.95;;;1.40;91.00;;;;;;4975423;28;20079;-81
2021/12/23 09:26:53;;;;;;;119.97;36.90;;;1.40;91.40;;;;;;5002629;28;20533;-82
2021/12/23 09:32:41;;;;;;;133.40;38.35;;;1.40;91.00;;;;;;4998728;28;20076;-81
2021/12/23 09:34:54;;;;;;;114.50;34.37;;;1.50;91.10;;;;;;4996418;28;20089;-81
2021/12/23 09:37:21;;;;;;;129.60;39.33;;;1.50;91.10;;;;;;5008777;28;20422;-81
2021/12/23 09:39:52;;;;;;;123.07;35.80;;;1.50;91.10;;;;;;4995635;28;20082;-82
2021/12/23 09:42:22;;;;;;;114.85;37.42;;;1.50;91.20;;;;;;4991406;28;20160;-81
2021/12/23 09:44:48;;;;;;;114.50;36.83;;;1.50;91.20;;;;;;5001489;28;20070;-81
2021/12/23 09:47:14;;;;;;;123.00;37.22;;;1.50;91.20;;;;;;4991785;28;20090;-82
2021/12/23 09:49:40;;;;;;;119.03;39.72;;;1.50;91.20;;;;;;4995408;28;20082;-82
2021/12/23 09:52:07;;;;;;;121.00;38.97;;;1.50;91.30;;;;;;4977718;28;20128;-82
2021/12/23 09:54:34;;;;;;;118.57;36.67;;;1.50;91.30;;;;;;4977730;28;20123;-82
2021/12/23 09:57:01;;;;;;;131.23;38.22;;;1.50;91.30;;;;;;4978427;28;20094;-82
2021/12/23 09:59:28;;;;;;;134.13;37.67;;;1.60;91.40;;;;;;4993065;28;20763;-82
2021/12/23 10:01:55;;;;;;;131.07;38.37;;;1.60;91.40;;;;;;4996114;28;20108;-81
2021/12/23 10:04:20;;;;;;;125.85;39.92;;;1.60;91.40;;;;;;4991300;28;20586;-81
2021/12/23 10:06:47;;;;;;;123.65;38.05;;;1.60;91.40;;;;;;4994764;28;20085;-82
2021/12/23 10:09:21;;;;;;;129.33;38.17;;;1.60;91.40;;;;;;4991460;28;20081;-82
2021/12/23 10:12:49;;;;;;;134.85;38.45;;;1.60;91.50;;;;;;4995356;28;20080;-82
2021/12/23 10:32:13;;;;;;;141.70;40.60;;;1.70;91.60;;;;;;4995250;28;20082;-81
2021/12/23 10:39:48;;;;;;;139.68;40.15;;;1.70;91.70;;;;;;4992269;28;20560;-81
2021/12/23 10:42:18;;;;;;;132.20;39.63;;;1.70;91.70;;;;;;5002517;28;20064;-80
2021/12/23 10:45:06;;;;;;;145.40;41.25;;;1.70;91.70;;;;;;4993143;28;20068;-80
2021/12/23 10:47:48;;;;;;;132.95;38.95;;;1.70;91.80;;;;;;4991743;28;20471;-81
2021/12/23 10:50:16;;;;;;;143.77;37.55;;;1.70;91.80;;;;;;5006873;28;20567;-81
2021/12/23 10:52:51;;;;;;;132.82;38.38;;;1.70;91.80;;;;;;4994369;28;20162;-81
2021/12/23 11:00:34;;;;;;;135.70;40.50;;;1.80;91.90;;;;;;4977197;28;20104;-81
2021/12/23 11:03:11;;;;;;;140.90;38.50;;;1.70;91.90;;;;;;4993108;28;20077;-81
2021/12/23 11:05:46;;;;;;;148.25;39.63;;;1.80;91.90;;;;;;4992085;28;20079;-81
2021/12/23 11:43:59;;;;;;;136.38;38.08;;;2.00;92.10;;;;;;4992569;28;20076;-82
2021/12/23 11:46:39;;;;;;;163.93;41.97;;;1.90;92.10;;;;;;4980569;28;20074;-82
2021/12/23 11:49:08;;;;;;;131.98;37.50;;;1.90;92.10;;;;;;5011235;28;20132;-82
2021/12/23 11:54:06;;;;;;;128.07;37.03;;;2.00;92.20;;;;;;4996224;28;20082;-82
2021/12/23 11:56:38;;;;;;;149.35;38.33;;;2.00;92.20;;;;;;4979709;28;20540;-81
2021/12/23 11:59:04;;;;;;;145.40;38.85;;;2.00;92.20;;;;;;4996596;28;20089;-78
2021/12/23 12:01:47;;;;;;;134.57;38.90;;;2.00;92.10;;;;;;4997116;28;20096;-84
2021/12/23 12:04:27;;;;;;;137.80;37.83;;;2.00;92.20;;;;;;4994774;28;20538;-82
2021/12/23 12:06:54;;;;;;;147.00;40.08;;;2.00;92.20;;;;;;5012671;28;20115;-83
2021/12/23 12:09:31;;;;;;;134.13;38.95;;;2.00;92.20;;;;;;4994876;28;20539;-84
2021/12/23 12:11:59;;;;;;;142.35;39.60;;;2.10;92.20;;;;;;4994539;28;20813;-83
2021/12/23 12:14:38;;;;;;;150.80;40.30;;;2.10;92.20;;;;;;4991254;28;20088;-84
2021/12/23 12:17:26;;;;;;;143.43;40.20;;;2.10;92.30;;;;;;5007937;28;20088;-83
2021/12/23 12:20:34;;;;;;;137.30;40.63;;;2.10;92.30;;;;;;4993125;28;20097;-83
2021/12/23 12:23:14;;;;;;;137.77;41.40;;;2.20;92.30;;;;;;5008496;28;20079;-82
2021/12/23 12:25:44;;;;;;;126.05;35.25;;;2.20;92.20;;;;;;5009969;28;20729;-83
2021/12/23 12:28:36;;;;;;;136.13;36.95;;;2.20;92.20;;;;;;4997445;28;20116;-84
2021/12/23 12:31:20;;;;;;;129.80;35.15;;;2.20;92.20;;;;;;4987326;28;20084;-83
2021/12/23 12:34:08;;;;;;;132.63;38.30;;;2.20;92.20;;;;;;4996711;28;20567;-83
2021/12/23 12:36:49;;;;;;;122.47;35.42;;;2.20;92.20;;;;;;4996545;28;21354;-83
2021/12/23 12:39:24;;;;;;;134.63;36.83;;;2.20;92.20;;;;;;5008030;28;20146;-83
2021/12/23 12:41:59;;;;;;;132.48;37.83;;;2.20;92.20;;;;;;4993038;28;20077;-81
2021/12/23 12:44:40;;;;;;;123.15;38.45;;;2.20;92.20;;;;;;4991829;28;20081;-81
2021/12/23 12:47:20;;;;;;;136.30;38.45;;;2.20;92.20;;;;;;5010451;28;20073;-82
2021/12/23 12:49:50;;;;;;;131.73;38.53;;;2.20;92.20;;;;;;4998408;28;20590;-81
2021/12/23 12:52:32;;;;;;;148.30;39.35;;;2.20;92.20;;;;;;4989862;28;20113;-81
2021/12/23 12:55:08;;;;;;;122.13;36.63;;;2.20;92.30;;;;;;4995431;28;20084;-81
2021/12/23 12:57:56;;;;;;;129.40;37.05;;;2.20;92.20;;;;;;4999893;28;20444;-81
2021/12/23 13:00:29;;;;;;;126.28;39.55;;;2.20;92.30;;;;;;5009811;28;20101;-81
2021/12/23 13:03:21;;;;;;;133.95;38.30;;;2.10;92.20;;;;;;4992975;28;20077;-81
2021/12/23 13:05:53;;;;;;;117.03;36.38;;;2.10;92.20;;;;;;4994492;28;20072;-80
2021/12/23 13:08:28;;;;;;;133.45;37.90;;;2.10;92.20;;;;;;4990407;28;20085;-82
2021/12/23 13:11:18;;;;;;;136.40;38.35;;;2.10;92.20;;;;;;4995021;28;20663;-82
2021/12/23 13:13:46;;;;;;;141.32;38.10;;;2.10;92.30;;;;;;5008766;28;21131;-82
2021/12/23 13:16:14;;;;;;;133.32;39.65;;;2.10;92.30;;;;;;4988998;28;20176;-82
2021/12/23 13:18:40;;;;;;;139.40;38.42;;;2.10;92.30;;;;;;4994542;28;20128;-81
2021/12/23 13:21:06;;;;;;;149.48;42.78;;;2.10;92.30;;;;;;4990594;28;20483;-81
2021/12/23 13:23:45;;;;;;;137.00;43.40;;;2.10;92.40;;;;;;4995273;28;20592;-82
2021/12/23 13:26:16;;;;;;;131.38;37.30;;;2.10;92.40;;;;;;5012683;28;20060;-82
2021/12/23 13:28:47;;;;;;;138.30;38.55;;;2.10;92.50;;;;;;4985970;28;20168;-82
2021/12/23 13:31:31;;;;;;;136.38;38.70;;;2.20;92.40;;;;;;5007787;28;20083;-82
2021/12/23 13:34:12;;;;;;;137.32;38.85;;;2.20;92.50;;;;;;4994121;28;20147;-82
2021/12/23 13:36:41;;;;;;;145.30;40.15;;;2.20;92.40;;;;;;4991764;28;20186;-82
2021/12/23 13:39:21;;;;;;;133.98;39.60;;;2.20;92.40;;;;;;4993831;28;20096;-82
2021/12/23 13:41:53;;;;;;;142.40;41.30;;;2.20;92.40;;;;;;4992349;28;20067;-82
2021/12/23 13:44:36;;;;;;;142.50;38.67;;;2.20;92.40;;;;;;4993906;28;20175;-82
2021/12/23 13:47:12;;;;;;;133.00;39.63;;;2.20;92.50;;;;;;4988565;28;20451;-82
2021/12/23 13:49:43;;;;;;;136.75;39.20;;;2.20;92.40;;;;;;5012291;28;20072;-82
2021/12/23 13:52:11;;;;;;;145.27;38.20;;;2.30;92.50;;;;;;4993601;28;20942;-82
2021/12/23 13:54:40;;;;;;;137.85;39.25;;;2.30;92.50;;;;;;4990606;28;20112;-82